Caribou, ME (04736)

6:20 PM EST on February 08, 2016 (GMT -0500)
Caribou Municipal | | Change Station
CLOSE
Current Station
Airport
Location: Caribou,
Elevation: 623 ft
Nearby Weather Stations
Active Advisory: Winter Weather Advisory

Elev 623 ft 46.87 °N, 68.02 °W | Updated 26 minutes ago

Clear
Clear
16 °F
Feels Like 3 °F
N
12
Wind Variable Wind from NNE

Today
High -- | Low -- °F
--% Chance of Precip.
Yesterday
High -- | Low -- °F
Precip. -- in
Pressure 29.99 in
Visibility 10.0 miles
Clouds Clear
Windchill 3 °F
Dew Point 3 °F
Humidity 57%
Rainfall 0.00 in
Snow Depth Not available.
6:47 AM 4:45 PM
New Moon, 0% visible
METAR KCAR 082254Z AUTO 03010KT 10SM CLR M09/M16 A2994 RMK AO2 SLP156 T10891161
Pressure 29.99 in
Visibility 10.0 miles
Clouds Clear
Windchill 3 °F
Dew Point 3 °F
Humidity 57%
Rainfall 0.00 in
Snow Depth Not available.
6:47 AM 4:45 PM
New Moon, 0% visible
METAR KCAR 082254Z AUTO 03010KT 10SM CLR M09/M16 A2994 RMK AO2 SLP156 T10891161

10-Day Weather Forecast

Almanac

Astronomy

Feb. 08, 2016 Rise Set
Actual Time
Civil Twilight
Nautical Twilight
Astronomical Twilight
Moon
Length of Visible Light
Length of Day
Tomorrow will be .
, % of the Moon is Illuminated

Today's Extremes

State Highs State Lows

Community

WunderPhotos

Upload Photos

1,891,525 photos uploaded!

WunderBlog® & News

Nearby

Air Quality

  Air Quality AQ Index Pollutant
Not available.

Snow Depth

Station Depth Elevation

Earthquake Activity

City Distance Mag. Time & Date
Minimum magnitude displayed is 2.5.

Coastal Water Temperatures

Place Temperature

Stations

Nearby Weather Stations

Station Location Temp. Windchill Dew Point Humidity Wind Precip. Elev Updated Type
                   

Watches & Warnings

Winter Weather Advisory
Issued: 4:22 PM EST Feb. 8, 2016 – National Weather Service

... Winter Weather Advisory remains in effect from 9 PM this
evening to 7 PM EST Tuesday...

* locations... North Woods... Central Highlands... and central and
southern Aroostook County.

* Snow accumulations... 4 to 6 inches.

* Timing... snow will develop from south to north across the
region this evening... and will reach the Saint John valley
around or shortly after midnight. Snow will taper to snow
showers from south to north Tuesday afternoon into early
evening.

* Impacts... roads will become snow covered and slippery tonight
and Tuesday.

* Winds... north 10 to 15 mph with gusts up to 25 mph.

Precautionary/preparedness actions...

A Winter Weather Advisory for snow means that periods of snow
will cause primarily travel difficulties. Be prepared for snow
covered roads and limited visibilities... and use caution while
driving.



Hewitt